Time,TemperatureF,DewpointF,PressureIn,WindDirection,WindDirectionDegrees,WindSpeedMPH,WindSpeedGustMPH,Humidity,HourlyPrecipIn,Conditions,Clouds,dailyrainin,SoftwareType,DateUTC
2013-04-05 00:02:00,52.0,46.0,-100.00,ENE,77,1.0,2.0,79,-99.99,,,-99.99,,2013-04-05 07:02:00,
2013-04-05 00:12:00,52.0,46.0,-100.00,ESE,104,1.0,2.0,81,-99.99,,,-99.99,,2013-04-05 07:12:00,
2013-04-05 00:22:00,52.0,47.0,-100.00,West,276,3.0,9.0,82,-99.99,,,-99.99,,2013-04-05 07:22:00,
2013-04-05 00:32:00,53.0,47.0,-100.00,West,273,4.0,7.0,81,-99.99,,,-99.99,,2013-04-05 07:32:00,
2013-04-05 00:42:00,53.0,47.0,-100.00,West,273,5.0,9.0,81,-99.99,,,-99.99,,2013-04-05 07:42:00,
2013-04-05 00:52:00,53.0,47.0,-100.00,West,281,4.0,7.0,81,-99.99,,,-99.99,,2013-04-05 07:52:00,
2013-04-05 01:02:00,53.0,48.0,-100.00,WNW,283,4.0,10.0,83,-99.99,,,-99.99,,2013-04-05 08:02:00,
2013-04-05 01:12:00,52.0,47.0,-100.00,NW,306,2.0,7.0,84,-99.99,,,-99.99,,2013-04-05 08:12:00,
2013-04-05 01:22:00,52.0,48.0,-100.00,WNW,288,3.0,8.0,86,-99.99,,,-99.99,,2013-04-05 08:22:00,
2013-04-05 01:32:00,52.0,48.0,-100.00,West,267,5.0,9.0,86,-99.99,,,-99.99,,2013-04-05 08:32:00,
2013-04-05 01:42:00,52.0,48.0,-100.00,West,269,5.0,9.0,86,-99.99,,,-99.99,,2013-04-05 08:42:00,
2013-04-05 01:52:00,52.0,48.0,-100.00,WNW,289,4.0,9.0,87,-99.99,,,-99.99,,2013-04-05 08:52:00,
2013-04-05 02:02:00,51.0,48.0,-100.00,North,350,1.0,3.0,89,-99.99,,,-99.99,,2013-04-05 09:02:00,
2013-04-05 02:12:00,51.0,48.0,-100.00,NW,320,1.0,3.0,90,-99.99,,,-99.99,,2013-04-05 09:12:00,
2013-04-05 02:22:00,51.0,48.0,-100.00,West,274,2.0,5.0,91,-99.99,,,-99.99,,2013-04-05 09:22:00,
2013-04-05 02:32:00,51.0,48.0,-100.00,West,274,2.0,5.0,91,-99.99,,,-99.99,,2013-04-05 09:32:00,
2013-04-05 02:42:00,50.0,47.0,-100.00,NNW,334,2.0,5.0,91,-99.99,,,-99.99,,2013-04-05 09:42:00,
2013-04-05 02:52:00,50.0,47.0,-100.00,NW,310,2.0,5.0,90,-99.99,,,-99.99,,2013-04-05 09:52:00,
2013-04-05 03:02:00,50.0,47.0,-100.00,NNW,340,1.0,3.0,89,-99.99,,,-99.99,,2013-04-05 10:02:00,
2013-04-05 03:12:00,50.0,47.0,-100.00,NNW,338,1.0,2.0,89,-99.99,,,-99.99,,2013-04-05 10:12:00,
2013-04-05 03:23:00,50.0,48.0,-100.00,West,270,4.0,10.0,92,-99.99,,,-99.99,,2013-04-05 10:23:00,
2013-04-05 03:32:00,50.0,48.0,-100.00,West,270,4.0,8.0,94,-99.99,,,-99.99,,2013-04-05 10:32:00,
2013-04-05 03:42:00,50.0,48.0,-100.00,NNW,337,1.0,4.0,94,-99.99,,,-99.99,,2013-04-05 10:42:00,
2013-04-05 03:52:00,50.0,48.0,-100.00,West,262,3.0,5.0,94,-99.99,,,-99.99,,2013-04-05 10:52:00,
2013-04-05 04:02:00,51.0,49.0,-100.00,NW,311,2.0,4.0,92,-99.99,,,-99.99,,2013-04-05 11:02:00,
2013-04-05 04:12:00,50.0,48.0,-100.00,WNW,299,2.0,3.0,93,-99.99,,,-99.99,,2013-04-05 11:12:00,
2013-04-05 04:21:00,51.0,49.0,-100.00,WNW,300,1.0,3.0,93,-99.99,,,-99.99,,2013-04-05 11:21:00,
2013-04-05 04:32:00,50.0,49.0,-100.00,NW,308,1.0,4.0,96,-99.99,,,-99.99,,2013-04-05 11:32:00,
2013-04-05 04:42:00,49.0,48.0,-100.00,NNW,336,1.0,4.0,97,-99.99,,,-99.99,,2013-04-05 11:42:00,
2013-04-05 04:52:00,49.0,49.0,-100.00,NW,323,2.0,4.0,100,-99.99,,,-99.99,,2013-04-05 11:52:00,
2013-04-05 05:02:00,49.0,49.0,-100.00,NW,314,2.0,4.0,100,-99.99,,,-99.99,,2013-04-05 12:02:00,
2013-04-05 05:12:00,49.0,49.0,-100.00,NW,320,2.0,3.0,99,-99.99,,,-99.99,,2013-04-05 12:12:00,
2013-04-05 05:22:00,49.0,49.0,-100.00,WNW,291,2.0,5.0,99,-99.99,,,-99.99,,2013-04-05 12:22:00,
2013-04-05 05:32:00,49.0,49.0,-100.00,WNW,287,2.0,4.0,99,-99.99,,,-99.99,,2013-04-05 12:32:00,
2013-04-05 05:42:00,49.0,49.0,-100.00,WNW,287,2.0,4.0,99,-99.99,,,-99.99,,2013-04-05 12:42:00,
2013-04-05 05:52:00,49.0,48.0,-100.00,West,272,5.0,7.0,98,-99.99,,,-99.99,,2013-04-05 12:52:00,
2013-04-05 06:02:00,49.0,48.0,-100.00,West,276,5.0,7.0,96,-99.99,,,-99.99,,2013-04-05 13:02:00,
2013-04-05 06:12:00,49.0,48.0,-100.00,West,265,6.0,9.0,98,-99.99,,,-99.99,,2013-04-05 13:12:00,
2013-04-05 06:22:00,49.0,49.0,-100.00,West,260,7.0,11.0,99,-99.99,,,-99.99,,2013-04-05 13:22:00,
2013-04-05 06:32:00,49.0,48.0,-100.00,West,267,6.0,9.0,98,-99.99,,,-99.99,,2013-04-05 13:32:00,
2013-04-05 06:42:00,49.0,48.0,-100.00,West,265,6.0,11.0,98,-99.99,,,-99.99,,2013-04-05 13:42:00,
2013-04-05 06:52:00,49.0,48.0,-100.00,WSW,258,7.0,12.0,98,-99.99,,,-99.99,,2013-04-05 13:52:00,
2013-04-05 07:02:00,49.0,48.0,-100.00,West,267,6.0,10.0,98,-99.99,,,-99.99,,2013-04-05 14:02:00,
2013-04-05 07:12:00,49.0,48.0,-100.00,West,272,5.0,8.0,98,-99.99,,,-99.99,,2013-04-05 14:12:00,
2013-04-05 07:22:00,49.0,49.0,-100.00,West,274,4.0,8.0,99,-99.99,,,-99.99,,2013-04-05 14:22:00,
2013-04-05 07:35:00,49.0,48.0,-100.00,West,269,4.0,7.0,98,-99.99,,,-99.99,,2013-04-05 14:35:00,
2013-04-05 07:42:00,50.0,49.0,-100.00,West,269,4.0,7.0,97,-99.99,,,-99.99,,2013-04-05 14:42:00,
2013-04-05 07:52:00,50.0,49.0,-100.00,West,261,5.0,8.0,96,-99.99,,,-99.99,,2013-04-05 14:52:00,
2013-04-05 08:02:00,51.0,50.0,-100.00,West,262,6.0,9.0,96,-99.99,,,-99.99,,2013-04-05 15:02:00,
2013-04-05 08:12:00,51.0,50.0,-100.00,West,259,6.0,9.0,96,-99.99,,,-99.99,,2013-04-05 15:12:00,
2013-04-05 08:22:00,51.0,50.0,-100.00,West,259,6.0,9.0,96,-99.99,,,-99.99,,2013-04-05 15:22:00,
2013-04-05 08:32:00,51.0,50.0,-100.00,WSW,257,6.0,10.0,96,-99.99,,,-99.99,,2013-04-05 15:32:00,
2013-04-05 08:42:00,51.0,50.0,-100.00,West,259,6.0,10.0,95,-99.99,,,-99.99,,2013-04-05 15:42:00,
2013-04-05 08:53:00,51.0,50.0,-100.00,WSW,257,8.0,12.0,95,-99.99,,,-99.99,,2013-04-05 15:53:00,
2013-04-05 09:02:00,52.0,51.0,-100.00,WSW,255,7.0,11.0,95,-99.99,,,-99.99,,2013-04-05 16:02:00,
2013-04-05 09:13:00,52.0,50.0,-100.00,WSW,250,7.0,10.0,93,-99.99,,,-99.99,,2013-04-05 16:13:00,
2013-04-05 09:22:00,52.0,50.0,-100.00,WSW,248,7.0,11.0,93,-99.99,,,-99.99,,2013-04-05 16:22:00,
2013-04-05 09:32:00,52.0,50.0,-100.00,WSW,245,8.0,12.0,92,-99.99,,,-99.99,,2013-04-05 16:32:00,
2013-04-05 09:42:00,53.0,50.0,-100.00,WSW,249,8.0,11.0,89,-99.99,,,-99.99,,2013-04-05 16:42:00,
2013-04-05 09:52:00,54.0,50.0,-100.00,WSW,243,8.0,12.0,86,-99.99,,,-99.99,,2013-04-05 16:52:00,
2013-04-05 10:02:00,54.0,49.0,-100.00,WSW,247,7.0,13.0,84,-99.99,,,-99.99,,2013-04-05 17:02:00,
2013-04-05 10:12:00,54.0,49.0,-100.00,WSW,251,8.0,13.0,84,-99.99,,,-99.99,,2013-04-05 17:12:00,
2013-04-05 10:22:00,55.0,49.0,-100.00,WSW,254,8.0,13.0,80,-99.99,,,-99.99,,2013-04-05 17:22:00,
2013-04-05 10:32:00,56.0,49.0,-100.00,WSW,258,8.0,13.0,78,-99.99,,,-99.99,,2013-04-05 17:32:00,
2013-04-05 10:44:00,55.0,49.0,-100.00,WSW,255,10.0,14.0,80,-99.99,,,-99.99,,2013-04-05 17:44:00,
2013-04-05 10:51:00,56.0,49.0,-100.00,WSW,255,9.0,14.0,78,-99.99,,,-99.99,,2013-04-05 17:51:00,
2013-04-05 11:02:00,56.0,49.0,-100.00,WSW,256,9.0,13.0,78,-99.99,,,-99.99,,2013-04-05 18:02:00,
2013-04-05 11:12:00,57.0,49.0,-100.00,WSW,251,9.0,14.0,75,-99.99,,,-99.99,,2013-04-05 18:12:00,
2013-04-05 11:22:00,57.0,48.0,-100.00,WSW,258,8.0,14.0,71,-99.99,,,-99.99,,2013-04-05 18:22:00,
2013-04-05 11:32:00,57.0,48.0,-100.00,West,260,8.0,15.0,71,-99.99,,,-99.99,,2013-04-05 18:32:00,
2013-04-05 11:42:00,58.0,48.0,-100.00,WSW,253,8.0,12.0,70,-99.99,,,-99.99,,2013-04-05 18:42:00,
2013-04-05 11:52:00,58.0,49.0,-100.00,WSW,252,8.0,13.0,71,-99.99,,,-99.99,,2013-04-05 18:52:00,
2013-04-05 12:02:00,58.0,49.0,-100.00,WSW,255,9.0,14.0,71,-99.99,,,-99.99,,2013-04-05 19:02:00,
2013-04-05 12:12:00,59.0,49.0,-100.00,West,261,9.0,14.0,69,-99.99,,,-99.99,,2013-04-05 19:12:00,
2013-04-05 12:22:00,59.0,48.0,-100.00,West,259,10.0,16.0,66,-99.99,,,-99.99,,2013-04-05 19:22:00,
2013-04-05 12:32:00,59.0,48.0,-100.00,West,265,10.0,16.0,67,-99.99,,,-99.99,,2013-04-05 19:32:00,
2013-04-05 12:42:00,60.0,48.0,-100.00,West,259,9.0,14.0,65,-99.99,,,-99.99,,2013-04-05 19:42:00,
2013-04-05 12:52:00,60.0,47.0,-100.00,WSW,256,9.0,15.0,63,-99.99,,,-99.99,,2013-04-05 19:52:00,
2013-04-05 13:02:00,61.0,47.0,-100.00,West,259,10.0,16.0,60,-99.99,,,-99.99,,2013-04-05 20:02:00,
2013-04-05 13:10:00,61.0,47.0,-100.00,West,262,9.0,17.0,59,-99.99,,,-99.99,,2013-04-05 20:10:00,
2013-04-05 13:21:00,62.0,47.0,-100.00,West,261,9.0,15.0,57,-99.99,,,-99.99,,2013-04-05 20:21:00,
2013-04-05 13:31:00,62.0,46.0,-100.00,WSW,248,8.0,16.0,55,-99.99,,,-99.99,,2013-04-05 20:31:00,
2013-04-05 13:42:00,62.0,46.0,-100.00,WSW,248,8.0,16.0,55,-99.99,,,-99.99,,2013-04-05 20:42:00,
2013-04-05 13:52:00,63.0,46.0,-100.00,WSW,255,8.0,16.0,54,-99.99,,,-99.99,,2013-04-05 20:52:00,
2013-04-05 14:02:00,64.0,45.0,-100.00,WSW,256,9.0,16.0,51,-99.99,,,-99.99,,2013-04-05 21:02:00,
2013-04-05 14:12:00,64.0,44.0,-100.00,WSW,252,9.0,17.0,49,-99.99,,,-99.99,,2013-04-05 21:12:00,
2013-04-05 14:23:00,64.0,44.0,-100.00,West,261,8.0,17.0,49,-99.99,,,-99.99,,2013-04-05 21:23:00,
2013-04-05 14:32:00,64.0,45.0,-100.00,WSW,252,10.0,15.0,50,-99.99,,,-99.99,,2013-04-05 21:32:00,
2013-04-05 14:42:00,65.0,44.0,-100.00,West,266,10.0,16.0,46,-99.99,,,-99.99,,2013-04-05 21:42:00,
2013-04-05 14:53:00,65.0,44.0,-100.00,West,268,8.0,16.0,47,-99.99,,,-99.99,,2013-04-05 21:53:00,
2013-04-05 15:02:00,65.0,44.0,-100.00,West,264,8.0,13.0,47,-99.99,,,-99.99,,2013-04-05 22:02:00,
2013-04-05 15:12:00,65.0,43.0,-100.00,West,264,9.0,16.0,45,-99.99,,,-99.99,,2013-04-05 22:12:00,
2013-04-05 15:22:00,66.0,42.0,-100.00,West,277,7.0,13.0,42,-99.99,,,-99.99,,2013-04-05 22:22:00,
2013-04-05 15:32:00,66.0,43.0,-100.00,West,266,9.0,16.0,43,-99.99,,,-99.99,,2013-04-05 22:32:00,
2013-04-05 15:42:00,65.0,44.0,-100.00,West,272,9.0,17.0,46,-99.99,,,-99.99,,2013-04-05 22:42:00,
2013-04-05 15:52:00,66.0,42.0,-100.00,West,275,8.0,16.0,41,-99.99,,,-99.99,,2013-04-05 22:52:00,
2013-04-05 16:02:00,66.0,42.0,-100.00,West,275,8.0,16.0,41,-99.99,,,-99.99,,2013-04-05 23:02:00,
2013-04-05 16:12:00,66.0,42.0,-100.00,West,270,9.0,19.0,42,-99.99,,,-99.99,,2013-04-05 23:12:00,
2013-04-05 16:22:00,64.0,44.0,-100.00,West,268,9.0,17.0,48,-99.99,,,-99.99,,2013-04-05 23:22:00,
2013-04-05 16:32:00,66.0,40.0,-100.00,West,279,8.0,15.0,39,-99.99,,,-99.99,,2013-04-05 23:32:00,
2013-04-05 16:42:00,66.0,38.0,-100.00,WNW,292,6.0,13.0,35,-99.99,,,-99.99,,2013-04-05 23:42:00,
2013-04-05 16:52:00,66.0,39.0,-100.00,WNW,287,5.0,11.0,37,-99.99,,,-99.99,,2013-04-05 23:52:00,
2013-04-05 17:02:00,65.0,40.0,-100.00,WNW,283,7.0,17.0,40,-99.99,,,-99.99,,2013-04-06 00:02:00,
2013-04-05 17:12:00,63.0,41.0,-100.00,WNW,291,7.0,15.0,45,-99.99,,,-99.99,,2013-04-06 00:12:00,
2013-04-05 17:22:00,62.0,44.0,-100.00,West,280,7.0,14.0,51,-99.99,,,-99.99,,2013-04-06 00:22:00,
2013-04-05 17:32:00,62.0,45.0,-100.00,WNW,290,6.0,11.0,53,-99.99,,,-99.99,,2013-04-06 00:32:00,
2013-04-05 17:42:00,62.0,45.0,-100.00,WNW,290,6.0,11.0,53,-99.99,,,-99.99,,2013-04-06 00:42:00,
2013-04-05 17:52:00,62.0,45.0,-100.00,WNW,291,6.0,15.0,53,-99.99,,,-99.99,,2013-04-06 00:52:00,
2013-04-05 18:02:00,61.0,46.0,-100.00,West,279,8.0,19.0,57,-99.99,,,-99.99,,2013-04-06 01:02:00,
2013-04-05 18:12:00,61.0,47.0,-100.00,WNW,283,8.0,15.0,60,-99.99,,,-99.99,,2013-04-06 01:12:00,
2013-04-05 18:22:00,60.0,47.0,-100.00,WNW,283,7.0,16.0,63,-99.99,,,-99.99,,2013-04-06 01:22:00,
2013-04-05 18:32:00,60.0,49.0,-100.00,WNW,291,6.0,16.0,66,-99.99,,,-99.99,,2013-04-06 01:32:00,
2013-04-05 18:42:00,58.0,49.0,-100.00,WNW,289,7.0,15.0,72,-99.99,,,-99.99,,2013-04-06 01:42:00,
2013-04-05 18:52:00,57.0,50.0,-100.00,WNW,290,6.0,12.0,76,-99.99,,,-99.99,,2013-04-06 01:52:00,
2013-04-05 19:02:00,56.0,50.0,-100.00,WNW,283,7.0,14.0,81,-99.99,,,-99.99,,2013-04-06 02:02:00,
2013-04-05 19:12:00,56.0,51.0,-100.00,WNW,288,6.0,11.0,82,-99.99,,,-99.99,,2013-04-06 02:12:00,
2013-04-05 19:22:00,56.0,51.0,-100.00,West,280,6.0,11.0,83,-99.99,,,-99.99,,2013-04-06 02:22:00,
2013-04-05 19:32:00,55.0,51.0,-100.00,West,273,7.0,11.0,87,-99.99,,,-99.99,,2013-04-06 02:32:00,
2013-04-05 19:42:00,54.0,51.0,-100.00,West,269,7.0,11.0,89,-99.99,,,-99.99,,2013-04-06 02:42:00,
2013-04-05 19:52:00,53.0,50.0,-100.00,West,270,7.0,11.0,90,-99.99,,,-99.99,,2013-04-06 02:52:00,
2013-04-05 20:02:00,53.0,50.0,-100.00,West,277,6.0,11.0,91,-99.99,,,-99.99,,2013-04-06 03:02:00,
2013-04-05 20:12:00,53.0,51.0,-100.00,West,271,6.0,10.0,94,-99.99,,,-99.99,,2013-04-06 03:12:00,
2013-04-05 20:22:00,52.0,51.0,-100.00,West,271,5.0,8.0,96,-99.99,,,-99.99,,2013-04-06 03:22:00,
2013-04-05 20:33:00,52.0,51.0,-100.00,West,276,5.0,8.0,97,-99.99,,,-99.99,,2013-04-06 03:33:00,
2013-04-05 20:42:00,52.0,51.0,-100.00,West,274,5.0,9.0,97,-99.99,,,-99.99,,2013-04-06 03:42:00,
2013-04-05 20:53:00,51.0,51.0,-100.00,West,273,6.0,10.0,99,-99.99,,,-99.99,,2013-04-06 03:53:00,
2013-04-05 21:03:00,51.0,51.0,-100.00,West,271,6.0,10.0,99,-99.99,,,-99.99,,2013-04-06 04:03:00,
2013-04-05 21:13:00,51.0,51.0,-100.00,West,272,6.0,8.0,100,-99.99,,,-99.99,,2013-04-06 04:13:00,
2013-04-05 21:22:00,51.0,51.0,-100.00,West,263,6.0,10.0,100,-99.99,,,-99.99,,2013-04-06 04:22:00,
2013-04-05 21:32:00,51.0,51.0,-100.00,West,270,6.0,10.0,99,-99.99,,,-99.99,,2013-04-06 04:32:00,
2013-04-05 21:42:00,50.0,50.0,-100.00,West,268,6.0,10.0,100,-99.99,,,-99.99,,2013-04-06 04:42:00,
2013-04-05 21:52:00,50.0,50.0,-100.00,West,261,7.0,10.0,100,-99.99,,,-99.99,,2013-04-06 04:52:00,
2013-04-05 22:02:00,50.0,50.0,-100.00,West,274,6.0,12.0,100,-99.99,,,-99.99,,2013-04-06 05:02:00,
2013-04-05 22:12:00,50.0,50.0,-100.00,West,272,6.0,11.0,100,-99.99,,,-99.99,,2013-04-06 05:12:00,
2013-04-05 22:22:00,50.0,50.0,-100.00,West,267,6.0,10.0,100,-99.99,,,-99.99,,2013-04-06 05:22:00,
2013-04-05 22:32:00,49.0,49.0,-100.00,West,270,7.0,11.0,100,-99.99,,,-99.99,,2013-04-06 05:32:00,
2013-04-05 22:42:00,49.0,49.0,-100.00,West,265,6.0,9.0,100,-99.99,,,-99.99,,2013-04-06 05:42:00,
2013-04-05 22:51:00,49.0,49.0,-100.00,West,265,7.0,11.0,100,-99.99,,,-99.99,,2013-04-06 05:51:00,
2013-04-05 23:02:00,49.0,49.0,-100.00,West,268,6.0,9.0,100,-99.99,,,-99.99,,2013-04-06 06:02:00,
2013-04-05 23:12:00,49.0,49.0,-100.00,West,268,7.0,11.0,100,-99.99,,,-99.99,,2013-04-06 06:12:00,
2013-04-05 23:22:00,49.0,49.0,-100.00,West,272,6.0,11.0,100,-99.99,,,-99.99,,2013-04-06 06:22:00,
2013-04-05 23:32:00,49.0,49.0,-100.00,West,276,5.0,8.0,100,-99.99,,,-99.99,,2013-04-06 06:32:00,
2013-04-05 23:42:00,49.0,49.0,-100.00,West,278,4.0,9.0,100,-99.99,,,-99.99,,2013-04-06 06:42:00,
2013-04-05 23:52:00,48.0,48.0,-100.00,West,270,5.0,9.0,100,-99.99,,,-99.99,,2013-04-06 06:52:00,